createdAt,value
2018-04-27T00:00:37.318Z,15.10
2018-04-27T00:03:06.433Z,16.67
2018-04-27T00:05:35.609Z,14.60
2018-04-27T00:08:04.840Z,17.17
2018-04-27T00:10:33.921Z,17.87
2018-04-27T00:13:03.033Z,16.27
2018-04-27T00:15:32.127Z,16.47
2018-04-27T00:18:01.241Z,16.10
2018-04-27T00:20:30.350Z,17.07
2018-04-27T00:22:59.461Z,16.87
2018-04-27T00:25:28.581Z,16.30
2018-04-27T00:27:57.694Z,15.67
2018-04-27T00:30:26.790Z,17.53
2018-04-27T00:32:55.902Z,18.07
2018-04-27T00:35:25.030Z,17.17
2018-04-27T00:37:54.139Z,17.00
2018-04-27T00:40:23.341Z,18.53
2018-04-27T00:42:52.517Z,15.60
2018-04-27T00:45:21.717Z,18.00
2018-04-27T00:47:50.871Z,16.20
2018-04-27T00:50:20.016Z,18.80
2018-04-27T00:52:54.998Z,17.20
2018-04-27T00:55:24.146Z,15.70
2018-04-27T00:57:53.229Z,16.33
2018-04-27T01:00:22.422Z,16.10
2018-04-27T01:02:51.642Z,15.93
2018-04-27T01:05:20.738Z,17.90
2018-04-27T01:07:49.826Z,16.63
2018-04-27T01:10:19.830Z,17.43
2018-04-27T01:12:49.021Z,15.43
2018-04-27T01:15:18.140Z,16.83
2018-04-27T01:17:47.220Z,16.63
2018-04-27T01:20:16.329Z,18.40
2018-04-27T01:22:45.435Z,17.40
2018-04-27T01:25:14.551Z,16.33
2018-04-27T01:27:43.662Z,17.20
2018-04-27T01:30:12.789Z,16.10
2018-04-27T01:32:41.897Z,19.13
2018-04-27T01:35:11.082Z,15.83
2018-04-27T01:37:40.262Z,17.90
2018-04-27T01:40:09.372Z,17.67
2018-04-27T01:42:38.468Z,17.47
2018-04-27T01:45:07.577Z,17.63
2018-04-27T01:47:36.745Z,19.40
2018-04-27T01:50:05.853Z,16.83
2018-04-27T01:52:35.003Z,16.63
2018-04-27T01:55:04.141Z,16.10
2018-04-27T01:57:33.253Z,16.67
2018-04-27T02:00:02.337Z,15.43
2018-04-27T02:02:31.459Z,15.97
2018-04-27T02:05:00.612Z,16.60
2018-04-27T02:07:29.703Z,17.13
2018-04-27T02:09:58.800Z,15.73
2018-04-27T02:12:27.895Z,16.57
2018-04-27T02:14:56.990Z,19.20
2018-04-27T02:17:26.101Z,15.53
2018-04-27T02:19:55.208Z,14.87
2018-04-27T02:22:24.352Z,18.03
2018-04-27T02:24:53.467Z,17.33
2018-04-27T02:27:22.555Z,16.10
2018-04-27T02:29:51.746Z,14.50
2018-04-27T02:32:20.855Z,17.40
2018-04-27T02:34:49.968Z,17.57
2018-04-27T02:39:53.857Z,16.23
2018-04-27T02:42:23.010Z,14.30
2018-04-27T02:44:52.155Z,15.63
2018-04-27T02:47:21.360Z,15.87
2018-04-27T02:49:50.452Z,17.03
2018-04-27T02:52:19.612Z,14.87
2018-04-27T02:54:48.717Z,16.70
2018-04-27T02:57:17.930Z,14.53
2018-04-27T02:59:47.146Z,16.77
2018-04-27T03:02:16.253Z,16.30
2018-04-27T03:04:45.354Z,16.40
2018-04-27T03:07:14.460Z,16.07
2018-04-27T03:09:43.562Z,16.00
2018-04-27T03:12:12.657Z,15.57
2018-04-27T03:14:41.788Z,15.10
2018-04-27T03:17:10.897Z,16.57
2018-04-27T03:19:40.019Z,17.80
2018-04-27T03:22:09.172Z,16.00
2018-04-27T03:24:39.242Z,15.77
2018-04-27T03:27:08.354Z,15.50
2018-04-27T03:29:37.441Z,15.30
2018-04-27T03:32:06.566Z,15.40
2018-04-27T03:34:35.761Z,17.03
2018-04-27T03:37:04.861Z,15.53
2018-04-27T03:39:33.978Z,17.00
2018-04-27T03:42:03.150Z,14.77
2018-04-27T03:44:32.262Z,14.87
2018-04-27T03:47:01.476Z,16.00
2018-04-27T03:49:30.633Z,15.60
2018-04-27T03:51:59.792Z,14.60
2018-04-27T03:54:28.914Z,15.10
2018-04-27T03:56:58.113Z,15.50
2018-04-27T03:59:33.212Z,13.77
2018-04-27T04:02:08.193Z,15.20
2018-04-27T04:04:43.378Z,13.90
2018-04-27T04:07:12.513Z,14.00
2018-04-27T04:09:42.633Z,13.80
2018-04-27T04:12:11.829Z,14.07
2018-04-27T04:14:40.954Z,15.50
2018-04-27T04:17:10.192Z,15.50
2018-04-27T04:19:39.241Z,15.40
2018-04-27T04:22:09.232Z,12.93
2018-04-27T04:24:38.365Z,14.57
2018-04-27T04:27:08.429Z,14.20
2018-04-27T04:29:37.564Z,14.03
2018-04-27T04:32:06.660Z,14.90
2018-04-27T04:34:35.854Z,13.43
2018-04-27T04:37:05.007Z,13.53
2018-04-27T04:39:35.153Z,13.50
2018-04-27T04:42:04.328Z,14.03
2018-04-27T04:44:33.445Z,11.20
2018-04-27T04:47:02.609Z,12.60
2018-04-27T04:49:31.742Z,13.10
2018-04-27T04:52:00.838Z,13.00
2018-04-27T04:54:30.923Z,13.60
2018-04-27T04:57:00.119Z,15.77
2018-04-27T04:59:29.214Z,14.33
2018-04-27T05:01:58.399Z,13.40
2018-04-27T05:04:27.511Z,13.23
2018-04-27T05:06:56.606Z,14.40
2018-04-27T05:09:25.801Z,12.77
2018-04-27T05:11:54.926Z,11.80
2018-04-27T05:14:24.038Z,12.97
2018-04-27T05:16:53.245Z,10.73
2018-04-27T05:19:22.344Z,11.27
2018-04-27T05:21:51.562Z,12.20
2018-04-27T05:24:20.833Z,11.40
2018-04-27T05:26:49.870Z,12.33
2018-04-27T05:29:18.968Z,12.57
2018-04-27T05:31:47.205Z,11.70
2018-04-27T05:34:14.669Z,10.47
2018-04-27T05:36:42.137Z,9.80
2018-04-27T05:39:09.597Z,9.90
2018-04-27T05:41:37.134Z,9.37
2018-04-27T05:44:04.707Z,9.87
2018-04-27T05:46:32.141Z,11.20
2018-04-27T05:48:59.714Z,11.00
2018-04-27T05:51:27.145Z,10.67
2018-04-27T05:53:54.618Z,9.70
2018-04-27T05:56:22.178Z,11.00
2018-04-27T05:58:49.630Z,11.10
2018-04-27T06:01:17.090Z,9.53
2018-04-27T06:03:56.558Z,10.70
2018-04-27T06:06:24.891Z,11.07
2018-04-27T06:08:52.383Z,9.40
2018-04-27T06:11:20.627Z,10.57
2018-04-27T06:13:48.188Z,10.53
2018-04-27T06:16:15.666Z,10.83
2018-04-27T06:18:43.204Z,9.90
2018-04-27T06:21:10.674Z,10.80
2018-04-27T06:23:38.205Z,9.13
2018-04-27T06:26:05.654Z,11.30
2018-04-27T06:28:33.942Z,11.30
2018-04-27T06:31:01.506Z,10.20
2018-04-27T06:33:29.060Z,11.33
2018-04-27T06:35:56.611Z,10.20
2018-04-27T06:38:24.082Z,10.43
2018-04-27T06:40:51.634Z,10.60
2018-04-27T06:43:19.106Z,10.53
2018-04-27T06:45:46.675Z,11.17
2018-04-27T06:48:14.924Z,10.53
2018-04-27T06:50:43.337Z,11.00
2018-04-27T06:53:11.579Z,10.83
2018-04-27T06:55:39.125Z,11.23
2018-04-27T06:58:06.598Z,11.80
2018-04-27T07:00:34.098Z,10.93
2018-04-27T07:03:01.596Z,11.60
2018-04-27T07:05:29.055Z,11.43
2018-04-27T07:07:56.610Z,11.77
2018-04-27T07:10:24.085Z,11.73
2018-04-27T07:12:51.625Z,12.00
2018-04-27T07:15:19.390Z,13.33
2018-04-27T07:17:46.938Z,12.93
2018-04-27T07:20:14.378Z,12.97
2018-04-27T07:22:41.871Z,10.90
2018-04-27T07:25:09.408Z,11.13
2018-04-27T07:27:36.860Z,8.23
2018-04-27T07:30:04.425Z,9.27
2018-04-27T07:32:31.855Z,7.13
2018-04-27T07:34:59.331Z,8.43
2018-04-27T07:37:26.773Z,8.83
2018-04-27T07:39:54.237Z,9.20
2018-04-27T07:42:21.672Z,9.87
2018-04-27T07:44:49.141Z,9.63
2018-04-27T07:47:16.607Z,9.80
2018-04-27T07:49:44.112Z,8.00
2018-04-27T07:52:11.576Z,8.37
2018-04-27T07:54:39.077Z,8.50
2018-04-27T07:57:06.513Z,8.53
2018-04-27T07:59:33.979Z,8.50
2018-04-27T08:02:01.545Z,10.50
2018-04-27T08:04:29.018Z,8.83
2018-04-27T08:06:56.555Z,8.67
2018-04-27T08:09:23.985Z,8.97
2018-04-27T08:11:51.443Z,8.63
2018-04-27T08:14:18.924Z,8.50
2018-04-27T08:16:46.374Z,9.37
2018-04-27T08:19:13.837Z,8.93
2018-04-27T08:21:42.032Z,8.87
2018-04-27T08:24:09.456Z,7.70
2018-04-27T08:26:37.030Z,9.53
2018-04-27T08:29:04.503Z,8.07
2018-04-27T08:31:32.110Z,7.93
2018-04-27T08:33:59.594Z,6.70
2018-04-27T08:36:27.057Z,7.13
2018-04-27T08:38:54.511Z,7.20
2018-04-27T08:41:23.464Z,6.10
2018-04-27T08:43:50.963Z,5.40
2018-04-27T08:46:18.434Z,4.97
2018-04-27T08:48:45.876Z,6.13
2018-04-27T08:51:13.423Z,6.73
2018-04-27T08:53:40.899Z,6.53
2018-04-27T08:56:08.434Z,6.37
2018-04-27T08:58:35.898Z,6.33
2018-04-27T09:01:03.366Z,6.13
2018-04-27T09:03:30.805Z,6.73
2018-04-27T09:05:58.287Z,5.83
2018-04-27T09:08:25.933Z,6.27
2018-04-27T09:10:53.503Z,5.23
2018-04-27T09:13:20.941Z,4.83
2018-04-27T09:15:48.518Z,4.40
2018-04-27T09:18:16.054Z,4.30
2018-04-27T09:20:43.513Z,4.70
2018-04-27T09:23:11.070Z,3.60
2018-04-27T09:25:38.531Z,4.10
2018-04-27T09:28:06.014Z,3.63
2018-04-27T09:30:34.275Z,5.37
2018-04-27T09:33:02.528Z,4.20
2018-04-27T09:35:29.963Z,4.83
2018-04-27T09:37:57.430Z,4.53
2018-04-27T09:40:26.006Z,3.80
2018-04-27T09:42:53.470Z,4.67
2018-04-27T09:45:20.940Z,4.30
2018-04-27T09:47:49.351Z,4.60
2018-04-27T09:50:16.870Z,4.53
2018-04-27T09:52:44.448Z,4.20
2018-04-27T09:55:11.987Z,3.90
2018-04-27T09:57:39.540Z,3.70
2018-04-27T10:00:06.993Z,4.20
2018-04-27T10:02:34.557Z,3.50
2018-04-27T10:05:02.010Z,4.10
2018-04-27T10:07:29.559Z,3.87
2018-04-27T10:09:57.027Z,3.80
2018-04-27T10:12:24.481Z,3.70
2018-04-27T10:14:51.953Z,3.37
2018-04-27T10:17:19.480Z,3.47
2018-04-27T10:19:46.943Z,5.80
2018-04-27T10:22:14.434Z,4.30
2018-04-27T10:24:42.684Z,3.77
2018-04-27T10:27:10.145Z,4.00
2018-04-27T10:29:37.592Z,3.87
2018-04-27T10:32:05.153Z,4.40
2018-04-27T10:34:32.638Z,4.30
2018-04-27T10:37:00.883Z,5.10
2018-04-27T10:39:28.337Z,3.23
2018-04-27T10:41:55.895Z,4.20
2018-04-27T10:44:23.330Z,3.33
2018-04-27T10:46:50.899Z,3.67
2018-04-27T10:49:18.334Z,3.63
2018-04-27T10:51:45.837Z,3.60
2018-04-27T10:54:14.097Z,3.40
2018-04-27T10:56:41.553Z,3.50
2018-04-27T10:59:09.027Z,3.63
2018-04-27T11:01:37.270Z,3.70
2018-04-27T11:04:04.750Z,3.20
2018-04-27T11:06:33.953Z,3.10
2018-04-27T11:09:02.149Z,3.43
2018-04-27T11:11:29.621Z,3.53
2018-04-27T11:13:57.111Z,5.03
2018-04-27T11:16:24.562Z,3.70
2018-04-27T11:18:52.142Z,4.30
2018-04-27T11:21:20.396Z,4.00
2018-04-27T11:23:47.842Z,4.27
2018-04-27T11:26:15.315Z,3.93
2018-04-27T11:28:42.901Z,3.73
2018-04-27T11:31:10.302Z,3.87
2018-04-27T11:33:37.778Z,6.80
2018-04-27T11:36:05.235Z,4.47
2018-04-27T11:38:32.689Z,3.50
2018-04-27T11:41:00.241Z,3.60
2018-04-27T11:43:27.678Z,4.67
2018-04-27T11:45:55.123Z,2.90
2018-04-27T11:48:22.598Z,3.37
2018-04-27T11:50:50.034Z,4.03
2018-04-27T11:53:17.737Z,3.43
2018-04-27T11:55:45.165Z,3.30
2018-04-27T11:58:12.635Z,3.20
2018-04-27T12:00:40.111Z,2.90
2018-04-27T12:03:08.351Z,3.00
2018-04-27T12:05:35.826Z,3.47
2018-04-27T12:08:03.280Z,3.30
2018-04-27T12:10:30.841Z,3.07
2018-04-27T12:12:58.409Z,4.00
2018-04-27T12:15:25.943Z,3.60
2018-04-27T12:17:53.501Z,3.13
2018-04-27T12:20:20.970Z,3.37
2018-04-27T12:22:48.438Z,2.83
2018-04-27T12:25:15.980Z,3.57
2018-04-27T12:27:43.545Z,3.17
2018-04-27T12:30:11.758Z,2.73
2018-04-27T12:32:39.216Z,3.73
2018-04-27T12:35:07.438Z,3.10
2018-04-27T12:37:34.894Z,3.13
2018-04-27T12:40:02.466Z,2.90
2018-04-27T12:42:29.916Z,3.90
2018-04-27T12:44:57.374Z,2.97
2018-04-27T12:47:24.924Z,2.90
2018-04-27T12:49:52.374Z,2.77
2018-04-27T12:52:19.852Z,3.03
2018-04-27T12:54:48.308Z,3.03
2018-04-27T12:57:15.749Z,3.00
2018-04-27T12:59:43.326Z,3.03
2018-04-27T13:02:10.775Z,2.50
2018-04-27T13:04:38.325Z,3.10
2018-04-27T13:07:05.793Z,2.90
2018-04-27T13:09:34.204Z,2.57
2018-04-27T13:12:02.434Z,2.80
2018-04-27T13:14:29.894Z,2.93
2018-04-27T13:16:57.472Z,3.10
2018-04-27T13:19:25.129Z,2.80
2018-04-27T13:21:52.587Z,3.00
2018-04-27T13:24:20.121Z,2.63
2018-04-27T13:26:47.671Z,3.10
2018-04-27T13:29:15.171Z,2.60
2018-04-27T13:31:42.577Z,2.80
2018-04-27T13:34:10.028Z,2.83
2018-04-27T13:36:37.506Z,2.50
2018-04-27T13:39:05.901Z,2.60
2018-04-27T13:41:34.133Z,2.93
2018-04-27T13:44:01.625Z,3.10
2018-04-27T13:46:29.077Z,2.47
2018-04-27T13:48:56.531Z,2.30
2018-04-27T13:51:26.022Z,2.97
2018-04-27T13:53:53.492Z,2.33
2018-04-27T13:56:20.986Z,2.70
2018-04-27T13:58:49.320Z,3.10
2018-04-27T14:01:16.758Z,2.23
2018-04-27T14:03:44.229Z,3.20
2018-04-27T14:06:11.682Z,3.10
2018-04-27T14:08:39.144Z,2.63
2018-04-27T14:11:06.593Z,2.47
2018-04-27T14:13:34.065Z,2.27
2018-04-27T14:16:01.611Z,2.40
2018-04-27T14:18:29.056Z,3.20
2018-04-27T14:20:56.512Z,2.27
2018-04-27T14:23:23.969Z,2.77
2018-04-27T14:25:51.417Z,2.60
2018-04-27T14:28:18.861Z,2.57
2018-04-27T14:30:46.338Z,2.67
2018-04-27T14:33:13.799Z,3.67
2018-04-27T14:35:41.353Z,2.30
2018-04-27T14:38:08.813Z,2.97
2018-04-27T14:40:37.296Z,3.80
2018-04-27T14:43:04.870Z,2.80
2018-04-27T14:45:33.133Z,2.70
2018-04-27T14:48:00.594Z,3.17
2018-04-27T14:50:28.863Z,2.83
2018-04-27T14:52:56.443Z,2.30
2018-04-27T14:55:23.982Z,2.50
2018-04-27T14:57:51.539Z,2.70
2018-04-27T15:00:19.947Z,3.43
2018-04-27T15:02:48.165Z,2.70
2018-04-27T15:05:15.639Z,2.87
2018-04-27T15:07:43.185Z,2.70
2018-04-27T15:10:10.646Z,2.83
2018-04-27T15:12:38.093Z,2.33
2018-04-27T15:15:05.558Z,3.47
2018-04-27T15:17:33.035Z,2.80
2018-04-27T15:20:00.600Z,2.57
2018-04-27T15:22:28.847Z,3.20
2018-04-27T15:24:56.330Z,2.33
2018-04-27T15:27:23.779Z,2.50
2018-04-27T15:29:52.751Z,2.60
2018-04-27T15:32:22.461Z,2.60
2018-04-27T15:34:50.016Z,2.60
2018-04-27T15:37:17.470Z,2.50
2018-04-27T15:39:44.963Z,2.47
2018-04-27T15:42:13.199Z,2.77
2018-04-27T15:44:40.657Z,2.73
2018-04-27T15:47:08.204Z,2.70
2018-04-27T15:49:35.662Z,2.40
2018-04-27T15:52:03.191Z,2.40
2018-04-27T15:54:30.578Z,2.53
2018-04-27T15:56:58.250Z,2.67
2018-04-27T15:59:25.719Z,2.70
2018-04-27T16:01:53.253Z,3.50
2018-04-27T16:04:20.962Z,2.17
2018-04-27T16:06:49.295Z,2.23
2018-04-27T16:09:17.327Z,2.57
2018-04-27T16:11:44.730Z,2.40
2018-04-27T16:14:12.203Z,2.57
2018-04-27T16:16:40.449Z,3.00
2018-04-27T16:19:09.512Z,2.53
2018-04-27T16:21:37.018Z,2.30
2018-04-27T16:24:04.469Z,2.30
2018-04-27T16:26:32.008Z,2.57
2018-04-27T16:28:59.444Z,2.20
2018-04-27T16:31:27.844Z,3.13
2018-04-27T16:33:55.311Z,2.77
2018-04-27T16:36:22.764Z,2.50
2018-04-27T16:38:50.202Z,2.40
2018-04-27T16:41:17.753Z,2.30
2018-04-27T16:43:49.015Z,2.20
2018-04-27T16:46:16.829Z,2.20
2018-04-27T16:48:44.487Z,2.73
2018-04-27T16:51:12.162Z,2.90
2018-04-27T16:53:39.675Z,2.80
2018-04-27T16:56:09.171Z,4.10
2018-04-27T16:58:36.620Z,6.20
2018-04-27T17:01:04.062Z,6.60
2018-04-27T17:03:31.534Z,9.30
2018-04-27T17:05:58.998Z,6.17
2018-04-27T17:08:27.222Z,3.20
2018-04-27T17:10:54.695Z,3.73
2018-04-27T17:13:23.130Z,2.80
2018-04-27T17:15:51.361Z,2.77
2018-04-27T17:18:18.858Z,2.40
2018-04-27T17:20:47.070Z,2.63
2018-04-27T17:23:14.523Z,2.70
2018-04-27T17:25:42.240Z,2.70
2018-04-27T17:28:10.463Z,3.57
2018-04-27T17:30:37.935Z,2.90
2018-04-27T17:33:05.410Z,3.00
2018-04-27T17:35:32.945Z,2.57
2018-04-27T17:38:00.667Z,3.53
2018-04-27T17:40:28.532Z,2.83
2018-04-27T17:42:56.722Z,3.40
2018-04-27T17:45:24.186Z,3.07
2018-04-27T17:47:52.152Z,2.50
2018-04-27T17:50:19.661Z,3.03
2018-04-27T17:52:47.870Z,2.97
2018-04-27T17:55:16.622Z,2.73
2018-04-27T17:57:44.826Z,2.53
2018-04-27T18:00:12.300Z,2.87
2018-04-27T18:02:39.752Z,2.50
2018-04-27T18:05:07.473Z,2.63
2018-04-27T18:07:35.724Z,2.60
2018-04-27T18:10:04.144Z,2.30
2018-04-27T18:12:31.628Z,3.00
2018-04-27T18:14:59.098Z,3.13
2018-04-27T18:17:29.895Z,2.33
2018-04-27T18:19:59.339Z,2.50
2018-04-27T18:22:26.897Z,2.73
2018-04-27T18:24:54.460Z,2.67
2018-04-27T18:27:22.901Z,2.90
2018-04-27T18:29:50.387Z,2.60
2018-04-27T18:32:17.846Z,2.27
2018-04-27T18:34:45.311Z,3.97
2018-04-27T18:37:12.861Z,2.30
2018-04-27T18:39:40.307Z,2.70
2018-04-27T18:42:10.199Z,2.50
2018-04-27T18:44:37.716Z,3.57
2018-04-27T18:47:05.146Z,2.30
2018-04-27T18:49:32.939Z,2.40
2018-04-27T18:52:01.174Z,2.87
2018-04-27T18:54:28.651Z,2.73
2018-04-27T18:56:56.190Z,2.93
2018-04-27T18:59:23.652Z,2.60
2018-04-27T19:01:52.100Z,3.20
2018-04-27T19:04:20.551Z,3.00
2018-04-27T19:06:48.992Z,2.43
2018-04-27T19:09:16.536Z,3.20
2018-04-27T19:11:44.089Z,3.20
2018-04-27T19:14:13.591Z,3.60
2018-04-27T19:16:41.792Z,4.50
2018-04-27T19:19:09.337Z,3.03
2018-04-27T19:21:36.788Z,2.87
2018-04-27T19:24:04.350Z,3.00
2018-04-27T19:26:31.913Z,2.93
2018-04-27T19:29:00.321Z,3.00
2018-04-27T19:31:27.787Z,2.87
2018-04-27T19:33:55.236Z,3.20
2018-04-27T19:36:22.673Z,2.87
2018-04-27T19:38:52.838Z,2.63
2018-04-27T19:41:20.534Z,2.77
2018-04-27T19:43:48.073Z,3.57
2018-04-27T19:46:15.529Z,3.20
2018-04-27T19:48:43.034Z,3.10
2018-04-27T19:51:10.537Z,3.07
2018-04-27T19:53:38.895Z,3.20
2018-04-27T19:56:06.343Z,3.27
2018-04-27T19:58:36.732Z,3.53
2018-04-27T20:01:04.954Z,3.00
2018-04-27T20:03:32.706Z,3.70
2018-04-27T20:06:04.161Z,3.50
2018-04-27T20:08:35.346Z,3.13
2018-04-27T20:11:02.819Z,3.30
2018-04-27T20:13:30.549Z,3.23
2018-04-27T20:15:59.035Z,3.63
2018-04-27T20:18:27.322Z,3.17
2018-04-27T20:20:59.110Z,3.20
2018-04-27T20:23:29.292Z,4.30
2018-04-27T20:25:59.393Z,5.90
2018-04-27T20:28:30.220Z,4.47
2018-04-27T20:30:57.690Z,3.43
2018-04-27T20:33:25.285Z,3.13
2018-04-27T20:35:58.536Z,3.73
2018-04-27T20:38:25.985Z,3.60
2018-04-27T20:40:53.458Z,3.57
2018-04-27T20:43:24.609Z,3.93
2018-04-27T20:45:55.089Z,3.87
2018-04-27T20:48:25.369Z,3.33
2018-04-27T20:51:00.265Z,3.73
2018-04-27T20:53:30.535Z,4.50
2018-04-27T20:56:03.261Z,4.17
2018-04-27T20:58:30.722Z,4.00
2018-04-27T21:00:58.185Z,4.63
2018-04-27T21:03:25.937Z,4.20
2018-04-27T21:05:53.392Z,4.70
2018-04-27T21:08:20.858Z,4.37
2018-04-27T21:10:48.413Z,3.57
2018-04-27T21:13:15.981Z,3.87
2018-04-27T21:15:43.542Z,4.00
2018-04-27T21:18:11.992Z,4.03
2018-04-27T21:20:39.464Z,3.83
2018-04-27T21:23:06.913Z,3.97
2018-04-27T21:25:35.309Z,4.70
2018-04-27T21:28:06.113Z,3.80
2018-04-27T21:30:33.692Z,3.60
2018-04-27T21:33:08.980Z,4.50
2018-04-27T21:35:46.338Z,4.57
2018-04-27T21:38:19.664Z,4.37
2018-04-27T21:40:47.158Z,4.77
2018-04-27T21:43:14.628Z,4.60
2018-04-27T21:45:42.085Z,4.60
2018-04-27T21:48:09.539Z,4.33
2018-04-27T21:50:37.035Z,5.20
2018-04-27T21:53:04.558Z,5.20
2018-04-27T21:55:32.118Z,6.77
2018-04-27T21:58:08.373Z,5.53
2018-04-27T22:00:35.837Z,5.17
2018-04-27T22:03:03.371Z,5.50
2018-04-27T22:05:44.526Z,5.70
2018-04-27T22:08:13.670Z,8.23
2018-04-27T22:10:41.212Z,6.20
2018-04-27T22:13:09.619Z,7.83
2018-04-27T22:15:39.827Z,7.90
2018-04-27T22:18:08.186Z,8.73
2018-04-27T22:20:45.663Z,6.90
2018-04-27T22:23:13.301Z,7.13
2018-04-27T22:25:44.336Z,8.60
2018-04-27T22:28:12.638Z,7.80
2018-04-27T22:30:43.548Z,7.27
2018-04-27T22:33:18.876Z,9.53
2018-04-27T22:35:56.104Z,9.90
2018-04-27T22:38:45.109Z,9.03
2018-04-27T22:41:13.469Z,9.60
2018-04-27T22:43:42.838Z,7.90
2018-04-27T22:46:12.128Z,9.83
2018-04-27T22:51:43.944Z,10.00
2018-04-27T23:07:53.228Z,7.97
2018-04-27T23:10:21.493Z,12.80
2018-04-27T23:12:58.890Z,12.73
2018-04-27T23:15:26.340Z,8.93
2018-04-27T23:17:53.870Z,9.30
2018-04-27T23:20:22.379Z,5.07
2018-04-27T23:22:51.656Z,7.53
2018-04-27T23:25:21.096Z,7.50
2018-04-27T23:27:50.070Z,9.47
2018-04-27T23:30:19.026Z,7.73
2018-04-27T23:32:46.691Z,7.90
2018-04-27T23:35:14.436Z,6.00
2018-04-27T23:37:42.664Z,6.77
2018-04-27T23:40:10.110Z,6.73
2018-04-27T23:42:37.568Z,6.73
2018-04-27T23:45:05.014Z,6.07
2018-04-27T23:47:32.473Z,6.00
2018-04-27T23:49:59.914Z,6.23
2018-04-27T23:52:27.402Z,6.30
2018-04-27T23:54:54.841Z,7.63
2018-04-27T23:57:23.009Z,6.47
